createdAt,value
2023-08-07T00:11:58.663Z,7.4
2023-08-07T00:27:08.295Z,8.6
2023-08-07T00:42:17.805Z,8
2023-08-07T00:57:27.500Z,7.5
2023-08-07T01:12:37.059Z,8.6
2023-08-07T01:27:46.765Z,9.4
2023-08-07T01:42:56.645Z,8.9
2023-08-07T01:58:06.367Z,8.4
2023-08-07T02:13:16.599Z,7.2
2023-08-07T02:28:26.190Z,7.1
2023-08-07T02:43:35.299Z,6.4
2023-08-07T02:58:45.169Z,6.9
2023-08-07T03:13:54.761Z,8.4
2023-08-07T03:29:04.181Z,8.5
2023-08-07T03:44:13.775Z,8.1
2023-08-07T03:59:24.787Z,8.4
2023-08-07T04:14:34.216Z,8.2
2023-08-07T04:29:43.911Z,8.2
2023-08-07T04:44:53.677Z,7.2
2023-08-07T05:00:03.323Z,7.3
2023-08-07T05:15:12.911Z,6.3
2023-08-07T05:30:24.779Z,5.7
2023-08-07T05:45:34.218Z,5.9
2023-08-07T06:00:45.279Z,4.6
2023-08-07T06:15:55.866Z,4.5
2023-08-07T06:31:05.768Z,4.2
2023-08-07T06:46:15.816Z,4.4
2023-08-07T07:01:26.396Z,4.7
2023-08-07T07:16:36.699Z,3.9
2023-08-07T07:31:45.874Z,3.6
2023-08-07T07:46:56.944Z,3.5
2023-08-07T08:02:08.445Z,2.6
2023-08-07T08:17:18.406Z,2.8
2023-08-07T08:32:29.002Z,2.6
2023-08-07T08:47:39.279Z,3.1
2023-08-07T09:02:48.938Z,3.9
2023-08-07T09:17:59.074Z,3.2
2023-08-07T09:33:09.437Z,3.8
2023-08-07T09:48:19.806Z,3.9
2023-08-07T10:03:30.037Z,3.9
2023-08-07T10:18:40.620Z,3.8
2023-08-07T10:33:50.539Z,4
2023-08-07T10:49:00.587Z,3.7
2023-08-07T11:04:11.528Z,3.7
2023-08-07T11:19:23.091Z,3.4
2023-08-07T11:34:32.955Z,2.2
2023-08-07T11:49:42.572Z,2.3
2023-08-07T12:04:52.738Z,2.4
2023-08-07T12:20:03.138Z,2
2023-08-07T12:35:16.045Z,2.3
2023-08-07T12:50:26.084Z,2.8
2023-08-07T13:05:38.750Z,2.7
2023-08-07T13:20:48.192Z,3.4
2023-08-07T13:35:58.516Z,2.4
2023-08-07T13:51:08.872Z,2.8
2023-08-07T14:06:18.607Z,2.7
2023-08-07T14:21:28.736Z,2.9
2023-08-07T14:36:38.878Z,2.5
2023-08-07T14:51:50.553Z,2.7
2023-08-07T15:06:58.754Z,2.2
2023-08-07T15:22:07.455Z,2.2
2023-08-07T15:37:17.190Z,2.2
2023-08-07T15:52:27.045Z,1.4
2023-08-07T16:07:36.864Z,1.6
2023-08-07T16:22:46.667Z,2
2023-08-07T16:37:56.119Z,2.4
2023-08-07T16:53:05.506Z,2
2023-08-07T17:08:15.063Z,2.1
2023-08-07T17:23:25.602Z,2.7
2023-08-07T17:38:35.107Z,2.8
2023-08-07T17:53:44.722Z,3.9
2023-08-07T18:08:54.466Z,3.2
2023-08-07T18:24:04.110Z,3.5
2023-08-07T18:39:13.919Z,3.5
2023-08-07T18:54:26.115Z,3.5
2023-08-07T19:09:35.633Z,3.8
2023-08-07T19:24:45.263Z,3.2
2023-08-07T19:39:55.148Z,2.4
2023-08-07T19:55:04.904Z,2.7
2023-08-07T20:10:14.445Z,2.9
2023-08-07T20:25:24.977Z,2.6
2023-08-07T20:40:35.262Z,2.6
2023-08-07T20:55:45.074Z,2.6
2023-08-07T21:10:55.151Z,2.6
2023-08-07T21:26:04.636Z,2.7
2023-08-07T21:41:14.027Z,2.6
2023-08-07T21:56:25.968Z,2.5
2023-08-07T22:11:36.710Z,2.4
2023-08-07T22:26:46.696Z,2.5
2023-08-07T22:41:55.568Z,2.4
2023-08-07T22:57:06.675Z,2.7
2023-08-07T23:12:17.960Z,2.9
2023-08-07T23:27:27.668Z,2.4
2023-08-07T23:42:37.201Z,3.3
2023-08-07T23:57:46.910Z,4
